createdAt,value
2022-08-19T00:00:14.917Z,15.00
2022-08-19T00:02:47.031Z,13.23
2022-08-19T00:05:20.017Z,13.90
2022-08-19T00:07:48.230Z,13.50
2022-08-19T00:10:19.356Z,13.57
2022-08-19T00:12:47.326Z,13.90
2022-08-19T00:15:18.998Z,13.60
2022-08-19T00:17:49.444Z,14.07
2022-08-19T00:20:20.668Z,13.63
2022-08-19T00:22:49.223Z,12.70
2022-08-19T00:25:19.223Z,14.20
2022-08-19T00:27:58.588Z,13.50
2022-08-19T00:30:26.832Z,13.47
2022-08-19T00:32:56.070Z,13.20
2022-08-19T00:35:28.075Z,13.93
2022-08-19T00:37:57.369Z,14.63
2022-08-19T00:40:27.372Z,14.10
2022-08-19T00:42:55.746Z,13.27
2022-08-19T00:45:26.328Z,13.93
2022-08-19T00:47:56.407Z,13.17
2022-08-19T00:50:25.167Z,14.70
2022-08-19T00:52:54.466Z,13.03
2022-08-19T00:55:24.778Z,15.57
2022-08-19T00:57:58.390Z,12.90
2022-08-19T01:00:28.482Z,14.97
2022-08-19T01:02:58.849Z,13.23
2022-08-19T01:05:29.628Z,13.17
2022-08-19T01:07:59.058Z,13.83
2022-08-19T01:10:33.626Z,14.30
2022-08-19T01:13:06.798Z,14.27
2022-08-19T01:15:36.313Z,14.30
2022-08-19T01:18:10.262Z,14.00
2022-08-19T01:20:38.264Z,14.03
2022-08-19T01:23:07.783Z,13.40
2022-08-19T01:25:42.089Z,13.60
2022-08-19T01:28:11.229Z,13.87
2022-08-19T01:30:40.042Z,14.10
2022-08-19T01:33:12.590Z,13.50
2022-08-19T01:35:43.529Z,13.73
2022-08-19T01:38:22.708Z,13.70
2022-08-19T01:40:50.673Z,13.80
2022-08-19T01:43:19.980Z,12.80
2022-08-19T01:45:48.589Z,14.43
2022-08-19T01:48:16.812Z,12.80
2022-08-19T01:50:45.154Z,13.93
2022-08-19T01:53:14.492Z,13.27
2022-08-19T01:55:46.070Z,12.07
2022-08-19T01:58:17.978Z,12.53
2022-08-19T02:00:47.200Z,13.67
2022-08-19T02:03:15.291Z,11.73
2022-08-19T02:05:44.333Z,12.47
2022-08-19T02:08:12.339Z,12.77
2022-08-19T02:10:43.592Z,12.20
2022-08-19T02:13:12.469Z,12.23
2022-08-19T02:15:40.403Z,11.60
2022-08-19T02:18:09.243Z,13.83
2022-08-19T02:20:37.712Z,12.17
2022-08-19T02:23:05.989Z,12.70
2022-08-19T02:25:45.319Z,13.10
2022-08-19T02:28:18.293Z,12.30
2022-08-19T02:30:47.621Z,13.00
2022-08-19T02:33:15.986Z,11.03
2022-08-19T02:35:44.726Z,13.17
2022-08-19T02:38:27.573Z,11.43
2022-08-19T02:40:59.822Z,11.67
2022-08-19T02:43:29.820Z,11.00
2022-08-19T02:46:02.068Z,10.70
2022-08-19T02:48:30.173Z,12.00
2022-08-19T02:50:58.194Z,11.00
2022-08-19T02:53:29.720Z,11.63
2022-08-19T02:55:59.358Z,11.40
2022-08-19T02:58:28.264Z,11.40
2022-08-19T03:00:58.426Z,11.50
2022-08-19T03:03:28.988Z,11.03
2022-08-19T03:06:10.211Z,10.30
2022-08-19T03:08:39.835Z,12.10
2022-08-19T03:11:15.526Z,11.93
2022-08-19T03:13:44.174Z,11.90
2022-08-19T03:16:13.182Z,10.53
2022-08-19T03:18:41.409Z,11.10
2022-08-19T03:21:10.462Z,11.73
2022-08-19T03:23:41.059Z,10.67
2022-08-19T03:26:16.699Z,12.40
2022-08-19T03:28:51.397Z,11.47
2022-08-19T03:31:44.283Z,12.13
2022-08-19T03:34:13.392Z,11.10
2022-08-19T03:36:41.687Z,12.40
2022-08-19T03:39:10.393Z,11.43
2022-08-19T03:41:44.880Z,11.67
2022-08-19T03:44:18.533Z,10.50
2022-08-19T03:46:50.663Z,11.27
2022-08-19T03:49:19.841Z,11.33
2022-08-19T03:51:49.610Z,11.17
2022-08-19T03:54:19.504Z,11.47
2022-08-19T03:56:50.633Z,12.57
2022-08-19T03:59:20.831Z,10.90
2022-08-19T04:01:49.305Z,12.17
2022-08-19T04:04:17.332Z,12.57
2022-08-19T04:06:48.812Z,11.20
2022-08-19T04:09:17.452Z,11.77
2022-08-19T04:11:49.903Z,11.57
2022-08-19T04:14:21.681Z,12.07
2022-08-19T04:16:50.675Z,11.97
2022-08-19T04:19:20.457Z,12.40
2022-08-19T04:21:51.342Z,13.27
2022-08-19T04:24:20.625Z,13.00
2022-08-19T04:26:50.568Z,12.70
2022-08-19T04:29:23.154Z,10.60
2022-08-19T04:31:51.762Z,11.20
2022-08-19T04:34:23.464Z,11.37
2022-08-19T04:36:53.076Z,10.97
2022-08-19T04:39:44.837Z,10.20
2022-08-19T04:42:32.730Z,11.10
2022-08-19T04:45:01.125Z,10.50
2022-08-19T04:47:48.016Z,9.93
2022-08-19T04:50:19.554Z,10.00
2022-08-19T04:52:47.921Z,12.03
2022-08-19T04:55:15.964Z,10.70
2022-08-19T04:57:47.477Z,9.00
2022-08-19T05:00:15.832Z,10.17
2022-08-19T05:02:43.796Z,8.87
2022-08-19T05:05:11.890Z,9.93
2022-08-19T05:07:43.111Z,9.60
2022-08-19T05:10:12.495Z,9.50
2022-08-19T05:12:40.516Z,9.77
2022-08-19T05:15:12.601Z,8.87
2022-08-19T05:18:03.316Z,9.73
2022-08-19T05:20:48.928Z,8.17
2022-08-19T05:23:21.955Z,8.13
2022-08-19T05:25:52.593Z,9.07
2022-08-19T05:28:21.083Z,9.17
2022-08-19T05:30:51.867Z,9.30
2022-08-19T05:33:22.637Z,10.00
2022-08-19T05:35:51.297Z,8.90
2022-08-19T05:38:20.198Z,9.27
2022-08-19T05:40:49.084Z,9.00
2022-08-19T05:43:17.387Z,8.77
2022-08-19T05:45:46.025Z,8.63
2022-08-19T05:48:15.923Z,8.40
2022-08-19T05:50:45.326Z,8.20
2022-08-19T05:53:13.369Z,8.90
2022-08-19T05:55:41.324Z,8.97
2022-08-19T05:58:09.445Z,8.37
2022-08-19T06:00:38.169Z,8.70
2022-08-19T06:03:11.816Z,9.47
2022-08-19T06:05:49.498Z,8.90
2022-08-19T06:08:33.939Z,8.47
2022-08-19T06:11:19.930Z,7.50
2022-08-19T06:13:52.012Z,8.07
2022-08-19T06:16:31.091Z,8.90
2022-08-19T06:19:04.208Z,8.53
2022-08-19T06:21:33.872Z,7.17
2022-08-19T06:24:03.192Z,8.50
2022-08-19T06:26:31.428Z,7.23
2022-08-19T06:28:59.364Z,8.80
2022-08-19T06:31:34.311Z,8.10
2022-08-19T06:34:04.110Z,7.50
2022-08-19T06:36:36.507Z,7.87
2022-08-19T06:39:06.567Z,7.50
2022-08-19T06:41:41.042Z,8.27
2022-08-19T06:44:18.991Z,7.10
2022-08-19T06:46:53.651Z,8.10
2022-08-19T06:49:23.715Z,7.77
2022-08-19T06:51:53.009Z,7.37
2022-08-19T06:54:21.500Z,6.90
2022-08-19T06:56:49.580Z,7.70
2022-08-19T06:59:19.709Z,8.40
2022-08-19T07:01:50.588Z,7.90
2022-08-19T07:04:20.717Z,7.10
2022-08-19T07:06:55.335Z,7.60
2022-08-19T07:09:25.025Z,7.27
2022-08-19T07:11:55.018Z,6.93
2022-08-19T07:14:26.268Z,7.50
2022-08-19T07:16:58.135Z,6.87
2022-08-19T07:19:29.302Z,7.20
2022-08-19T07:21:57.783Z,6.60
2022-08-19T07:24:31.190Z,7.20
2022-08-19T07:27:06.775Z,6.87
2022-08-19T07:29:43.276Z,6.60
2022-08-19T07:32:13.484Z,6.43
2022-08-19T07:34:41.668Z,6.73
2022-08-19T07:37:10.973Z,6.40
2022-08-19T07:39:41.085Z,6.47
2022-08-19T07:42:13.413Z,5.33
2022-08-19T07:44:50.641Z,5.87
2022-08-19T07:47:47.415Z,5.80
2022-08-19T07:50:12.332Z,5.60
2022-08-19T07:52:41.261Z,5.67
2022-08-19T07:55:41.242Z,4.93
2022-08-19T07:58:00.509Z,4.70
2022-08-19T08:00:31.273Z,4.60
2022-08-19T08:02:59.285Z,4.60
2022-08-19T08:05:45.214Z,5.23
2022-08-19T08:08:31.178Z,5.67
2022-08-19T08:11:02.322Z,4.90
2022-08-19T08:13:30.554Z,5.57
2022-08-19T08:15:59.653Z,5.00
2022-08-19T08:18:30.525Z,5.37
2022-08-19T08:20:59.634Z,4.73
2022-08-19T08:23:29.542Z,4.97
2022-08-19T08:26:00.133Z,5.13
2022-08-19T08:28:30.596Z,5.10
2022-08-19T08:30:59.393Z,5.37
2022-08-19T08:33:34.613Z,4.77
2022-08-19T08:36:04.121Z,4.60
2022-08-19T08:38:38.454Z,5.30
2022-08-19T08:41:20.534Z,4.60
2022-08-19T08:43:54.565Z,4.70
2022-08-19T08:46:31.510Z,5.13
2022-08-19T08:49:08.421Z,4.00
2022-08-19T08:54:14.645Z,4.27
2022-08-19T08:56:45.394Z,4.63
2022-08-19T08:59:26.499Z,4.37
2022-08-19T09:01:54.679Z,3.67
2022-08-19T09:04:23.483Z,4.00
2022-08-19T09:06:58.622Z,3.30
2022-08-19T09:09:33.408Z,3.60
2022-08-19T09:12:11.734Z,3.30
2022-08-19T09:14:51.878Z,4.13
2022-08-19T09:17:29.003Z,3.97
2022-08-19T09:20:03.540Z,3.90
2022-08-19T09:22:32.976Z,3.70
2022-08-19T09:25:01.614Z,3.60
2022-08-19T09:27:42.032Z,3.50
2022-08-19T09:30:18.064Z,3.00
2022-08-19T09:32:46.690Z,3.40
2022-08-19T09:35:16.738Z,3.40
2022-08-19T09:37:45.111Z,3.40
2022-08-19T09:40:18.662Z,4.43
2022-08-19T09:42:52.658Z,3.50
2022-08-19T09:45:23.806Z,3.43
2022-08-19T09:47:55.203Z,3.50
2022-08-19T09:50:24.791Z,3.90
2022-08-19T09:52:57.716Z,3.90
2022-08-19T09:55:31.252Z,3.20
2022-08-19T09:58:02.407Z,3.93
2022-08-19T10:00:34.589Z,3.33
2022-08-19T10:03:02.644Z,4.10
2022-08-19T10:05:49.131Z,4.00
2022-08-19T10:08:18.619Z,3.60
2022-08-19T10:10:49.922Z,4.10
2022-08-19T10:13:22.820Z,3.83
2022-08-19T10:15:52.598Z,3.80
2022-08-19T10:18:23.742Z,4.00
2022-08-19T10:20:53.429Z,3.07
2022-08-19T10:23:22.240Z,3.57
2022-08-19T10:25:51.322Z,3.90
2022-08-19T10:28:19.717Z,3.17
2022-08-19T10:30:48.526Z,3.97
2022-08-19T10:33:38.619Z,4.10
2022-08-19T10:36:08.796Z,3.73
2022-08-19T10:38:36.913Z,3.90
2022-08-19T10:41:09.902Z,3.90
2022-08-19T10:43:39.276Z,4.20
2022-08-19T10:46:09.656Z,3.03
2022-08-19T10:48:46.819Z,3.67
2022-08-19T10:51:32.700Z,3.80
2022-08-19T10:54:02.713Z,3.33
2022-08-19T10:56:54.107Z,3.80
2022-08-19T10:59:26.913Z,3.80
2022-08-19T11:01:56.787Z,3.67
2022-08-19T11:04:28.876Z,3.70
2022-08-19T11:06:58.364Z,3.83
2022-08-19T11:09:33.618Z,3.57
2022-08-19T11:12:02.789Z,3.60
2022-08-19T11:14:34.767Z,3.40
2022-08-19T11:17:03.393Z,3.40
2022-08-19T11:19:35.190Z,3.33
2022-08-19T11:22:03.913Z,3.60
2022-08-19T11:24:33.649Z,3.23
2022-08-19T11:27:07.269Z,3.20
2022-08-19T11:29:36.056Z,3.50
2022-08-19T11:32:06.887Z,3.40
2022-08-19T11:34:36.608Z,3.60
2022-08-19T11:37:06.723Z,3.50
2022-08-19T11:39:36.322Z,3.30
2022-08-19T11:42:25.518Z,3.37
2022-08-19T11:44:56.571Z,2.93
2022-08-19T11:47:25.010Z,2.70
2022-08-19T11:49:54.353Z,3.33
2022-08-19T11:52:22.323Z,3.10
2022-08-19T11:54:50.463Z,2.90
2022-08-19T11:57:19.418Z,3.03
2022-08-19T11:59:51.491Z,3.47
2022-08-19T12:02:20.050Z,2.87
2022-08-19T12:04:48.327Z,3.47
2022-08-19T12:07:17.764Z,3.17
2022-08-19T12:09:45.948Z,3.00
2022-08-19T12:12:17.274Z,3.03
2022-08-19T12:14:46.229Z,3.10
2022-08-19T12:17:14.569Z,3.30
2022-08-19T12:19:42.486Z,3.40
2022-08-19T12:22:10.524Z,3.40
2022-08-19T12:24:40.013Z,2.97
2022-08-19T12:27:12.504Z,2.80
2022-08-19T12:29:42.325Z,3.03
2022-08-19T12:32:12.234Z,3.20
2022-08-19T12:34:43.405Z,2.97
2022-08-19T12:37:11.920Z,3.10
2022-08-19T12:39:43.329Z,3.17
2022-08-19T12:42:12.365Z,2.43
2022-08-19T12:44:42.710Z,2.97
2022-08-19T12:47:12.599Z,3.10
2022-08-19T12:49:54.203Z,3.43
2022-08-19T12:52:24.558Z,3.17
2022-08-19T12:54:56.042Z,2.53
2022-08-19T12:57:32.270Z,3.30
2022-08-19T13:00:05.301Z,3.20
2022-08-19T13:02:38.847Z,4.20
2022-08-19T13:05:10.708Z,3.40
2022-08-19T13:07:39.441Z,4.13
2022-08-19T13:10:12.046Z,3.70
2022-08-19T13:12:42.922Z,4.00
2022-08-19T13:15:12.244Z,3.47
2022-08-19T13:17:41.096Z,4.17
2022-08-19T13:20:11.969Z,4.00
2022-08-19T13:22:40.025Z,4.40
2022-08-19T13:25:10.718Z,4.37
2022-08-19T13:27:43.392Z,5.10
2022-08-19T13:30:31.318Z,4.70
2022-08-19T13:33:16.257Z,5.30
2022-08-19T13:35:48.551Z,5.20
2022-08-19T13:38:21.361Z,4.20
2022-08-19T13:40:52.432Z,4.77
2022-08-19T13:43:23.767Z,4.60
2022-08-19T13:45:57.405Z,4.50
2022-08-19T13:48:27.277Z,4.37
2022-08-19T13:50:57.726Z,4.67
2022-08-19T13:53:25.913Z,5.20
2022-08-19T13:55:55.476Z,4.90
2022-08-19T13:58:24.309Z,4.27
2022-08-19T14:00:52.334Z,4.60
2022-08-19T14:03:20.515Z,5.53
2022-08-19T14:05:48.625Z,5.47
2022-08-19T14:08:16.636Z,4.63
2022-08-19T14:10:45.631Z,4.57
2022-08-19T14:13:18.774Z,4.63
2022-08-19T14:15:48.176Z,5.10
2022-08-19T14:18:16.705Z,4.97
2022-08-19T14:20:44.883Z,5.20
2022-08-19T14:23:14.548Z,4.97
2022-08-19T14:25:42.573Z,5.47
2022-08-19T14:28:10.730Z,5.10
2022-08-19T14:30:40.123Z,5.30
2022-08-19T14:33:09.600Z,5.30
2022-08-19T14:35:38.433Z,5.67
2022-08-19T14:38:08.140Z,5.37
2022-08-19T14:40:36.143Z,4.93
2022-08-19T14:43:06.209Z,5.47
2022-08-19T14:45:37.241Z,5.00
2022-08-19T14:48:08.018Z,4.50
2022-08-19T14:50:40.493Z,5.30
2022-08-19T14:53:12.563Z,5.47
2022-08-19T14:55:44.096Z,5.30
2022-08-19T14:58:29.370Z,5.10
2022-08-19T15:01:00.990Z,4.90
2022-08-19T15:03:32.513Z,5.47
2022-08-19T15:06:02.216Z,5.30
2022-08-19T15:08:32.406Z,5.43
2022-08-19T15:11:02.831Z,5.30
2022-08-19T15:13:31.435Z,4.67
2022-08-19T15:16:00.034Z,5.17
2022-08-19T15:18:28.096Z,5.43
2022-08-19T15:20:57.796Z,5.47
2022-08-19T15:23:25.765Z,5.50
2022-08-19T15:25:55.802Z,5.33
2022-08-19T15:28:25.868Z,4.70
2022-08-19T15:30:54.576Z,5.30
2022-08-19T15:33:22.514Z,4.43
2022-08-19T15:35:54.033Z,4.13
2022-08-19T15:38:25.692Z,4.20
2022-08-19T15:41:15.801Z,4.00
2022-08-19T15:43:44.242Z,3.77
2022-08-19T15:46:12.245Z,3.30
2022-08-19T15:48:45.218Z,2.80
2022-08-19T15:51:25.496Z,3.30
2022-08-19T15:53:55.226Z,3.83
2022-08-19T15:56:27.207Z,3.50
2022-08-19T15:59:13.232Z,3.63
2022-08-19T16:02:03.959Z,3.63
2022-08-19T16:04:49.599Z,3.90
2022-08-19T16:07:22.347Z,8.87
2022-08-19T16:09:52.869Z,43.70
2022-08-19T16:12:21.202Z,27.33
2022-08-19T16:14:49.528Z,10.93
2022-08-19T16:17:17.583Z,5.27
2022-08-19T16:19:47.598Z,4.43
2022-08-19T16:22:19.603Z,4.67
2022-08-19T16:24:47.766Z,4.00
2022-08-19T16:27:17.791Z,6.23
2022-08-19T16:29:46.626Z,6.83
2022-08-19T16:32:14.892Z,6.63
2022-08-19T16:34:44.351Z,6.30
2022-08-19T16:37:12.312Z,5.97
2022-08-19T16:39:41.271Z,4.60
2022-08-19T16:42:13.963Z,3.87
2022-08-19T16:44:45.965Z,3.93
2022-08-19T16:47:15.212Z,6.43
2022-08-19T16:49:53.749Z,5.00
2022-08-19T16:52:26.190Z,4.20
2022-08-19T16:54:54.689Z,5.47
2022-08-19T16:57:23.785Z,5.10
2022-08-19T16:59:53.395Z,4.10
2022-08-19T17:02:23.643Z,4.50
2022-08-19T17:04:59.246Z,4.30
2022-08-19T17:07:28.049Z,4.03
2022-08-19T17:09:56.255Z,5.30
2022-08-19T17:12:30.643Z,5.70
2022-08-19T17:15:02.954Z,4.73
2022-08-19T17:17:32.148Z,4.83
2022-08-19T17:20:02.174Z,4.23
2022-08-19T17:22:30.262Z,5.03
2022-08-19T17:24:58.652Z,5.23
2022-08-19T17:27:32.087Z,6.30
2022-08-19T17:30:03.120Z,6.00
2022-08-19T17:32:34.874Z,5.17
2022-08-19T17:35:04.656Z,4.80
2022-08-19T17:37:32.949Z,4.63
2022-08-19T17:40:02.217Z,5.10
2022-08-19T17:42:30.364Z,4.93
2022-08-19T17:44:59.369Z,4.93
2022-08-19T17:47:29.726Z,4.80
2022-08-19T17:49:57.793Z,4.87
2022-08-19T17:52:26.000Z,4.60
2022-08-19T17:54:53.933Z,5.30
2022-08-19T17:57:22.094Z,4.50
2022-08-19T17:59:50.401Z,4.53
2022-08-19T18:02:21.424Z,5.00
2022-08-19T18:04:51.514Z,5.40
2022-08-19T18:07:21.571Z,5.20
2022-08-19T18:09:51.858Z,5.43
2022-08-19T18:12:26.598Z,5.17
2022-08-19T18:14:54.568Z,4.50
2022-08-19T18:17:23.285Z,4.50
2022-08-19T18:19:52.932Z,4.40
2022-08-19T18:22:27.202Z,4.70
2022-08-19T18:24:55.982Z,4.50
2022-08-19T18:27:23.967Z,4.10
2022-08-19T18:29:52.302Z,3.93
2022-08-19T18:32:23.805Z,4.17
2022-08-19T18:34:56.155Z,4.00
2022-08-19T18:37:26.269Z,3.77
2022-08-19T18:40:11.758Z,4.30
2022-08-19T18:43:00.981Z,3.67
2022-08-19T18:45:46.873Z,3.83
2022-08-19T18:48:32.301Z,4.10
2022-08-19T18:51:04.218Z,4.07
2022-08-19T18:53:34.517Z,3.90
2022-08-19T18:56:03.639Z,4.50
2022-08-19T18:58:34.326Z,4.40
2022-08-19T19:01:11.339Z,4.40
2022-08-19T19:03:45.811Z,4.10
2022-08-19T19:06:18.755Z,4.50
2022-08-19T19:08:46.867Z,3.80
2022-08-19T19:11:20.235Z,4.57
2022-08-19T19:13:49.521Z,4.23
2022-08-19T19:16:24.114Z,4.50
2022-08-19T19:18:52.950Z,4.70
2022-08-19T19:21:23.899Z,5.47
2022-08-19T19:23:53.118Z,4.80
2022-08-19T19:26:23.902Z,4.83
2022-08-19T19:28:52.855Z,4.40
2022-08-19T19:31:25.568Z,5.20
2022-08-19T19:33:54.372Z,4.50
2022-08-19T19:36:24.183Z,4.40
2022-08-19T19:38:52.874Z,4.80
2022-08-19T19:41:24.487Z,5.50
2022-08-19T19:44:29.417Z,5.40
2022-08-19T19:46:49.092Z,4.80
2022-08-19T19:49:19.536Z,5.30
2022-08-19T19:51:48.933Z,5.10
2022-08-19T19:54:21.747Z,4.80
2022-08-19T19:56:53.880Z,5.90
2022-08-19T19:59:22.797Z,5.20
2022-08-19T20:01:51.271Z,5.30
2022-08-19T20:04:22.599Z,5.60
2022-08-19T20:06:51.945Z,5.00
2022-08-19T20:09:19.889Z,5.27
2022-08-19T20:11:53.449Z,5.33
2022-08-19T20:14:23.811Z,5.60
2022-08-19T20:16:53.909Z,5.27
2022-08-19T20:19:25.995Z,5.20
2022-08-19T20:21:57.321Z,5.50
2022-08-19T20:24:28.002Z,6.20
2022-08-19T20:26:55.988Z,5.13
2022-08-19T20:29:39.527Z,5.10
2022-08-19T20:32:11.531Z,6.00
2022-08-19T20:34:40.112Z,6.37
2022-08-19T20:37:09.830Z,5.80
2022-08-19T20:39:38.280Z,5.17
2022-08-19T20:42:06.663Z,5.83
2022-08-19T20:44:34.932Z,5.67
2022-08-19T20:47:05.214Z,5.10
2022-08-19T20:49:33.235Z,6.10
2022-08-19T20:52:01.299Z,6.00
2022-08-19T20:54:30.877Z,5.77
2022-08-19T20:56:58.898Z,5.23
2022-08-19T20:59:27.019Z,5.53
2022-08-19T21:01:55.536Z,5.73
2022-08-19T21:04:23.576Z,5.57
2022-08-19T21:06:54.698Z,5.67
2022-08-19T21:09:22.744Z,5.57
2022-08-19T21:11:52.191Z,5.33
2022-08-19T21:14:20.390Z,5.27
2022-08-19T21:16:49.267Z,4.67
2022-08-19T21:19:19.033Z,5.60
2022-08-19T21:21:50.241Z,5.20
2022-08-19T21:24:18.192Z,4.73
2022-08-19T21:26:49.465Z,5.20
2022-08-19T21:29:21.089Z,5.00
2022-08-19T21:31:50.121Z,5.57
2022-08-19T21:34:18.501Z,5.10
2022-08-19T21:36:46.366Z,5.30
2022-08-19T21:39:14.360Z,4.87
2022-08-19T21:41:43.803Z,5.50
2022-08-19T21:44:11.806Z,5.13
2022-08-19T21:46:41.006Z,4.90
2022-08-19T21:49:09.043Z,5.60
2022-08-19T21:51:36.910Z,5.70
2022-08-19T21:54:07.317Z,5.60
2022-08-19T21:56:42.134Z,5.20
2022-08-19T21:59:10.061Z,5.40
2022-08-19T22:01:38.050Z,5.23
2022-08-19T22:04:07.416Z,6.10
2022-08-19T22:06:35.470Z,5.57
2022-08-19T22:09:09.244Z,5.07
2022-08-19T22:11:37.807Z,5.80
2022-08-19T22:14:05.744Z,5.67
2022-08-19T22:16:35.753Z,5.90
2022-08-19T22:19:03.756Z,5.50
2022-08-19T22:21:40.758Z,4.60
2022-08-19T22:24:10.368Z,5.80
2022-08-19T22:26:38.290Z,6.10
2022-08-19T22:29:07.479Z,5.17
2022-08-19T22:31:36.418Z,5.50
2022-08-19T22:34:05.039Z,5.40
2022-08-19T22:36:35.390Z,5.57
2022-08-19T22:39:04.091Z,5.80
2022-08-19T22:41:33.579Z,5.40
2022-08-19T22:44:01.832Z,6.23
2022-08-19T22:46:33.568Z,4.50
2022-08-19T22:49:01.773Z,5.33
2022-08-19T22:51:49.607Z,5.20
2022-08-19T22:54:19.063Z,5.17
2022-08-19T22:56:47.039Z,4.80
2022-08-19T22:59:15.043Z,5.50
2022-08-19T23:01:43.049Z,4.83
2022-08-19T23:04:11.569Z,5.20
2022-08-19T23:06:42.062Z,5.30
2022-08-19T23:09:10.913Z,5.20
2022-08-19T23:11:46.656Z,4.70
2022-08-19T23:14:16.159Z,5.10
2022-08-19T23:16:50.844Z,4.83
2022-08-19T23:19:19.670Z,4.63
2022-08-19T23:21:48.226Z,4.83
2022-08-19T23:24:16.162Z,5.07
2022-08-19T23:27:04.258Z,4.33
2022-08-19T23:29:51.210Z,5.10
2022-08-19T23:32:20.248Z,5.20
2022-08-19T23:34:48.637Z,5.10
2022-08-19T23:37:16.977Z,4.87
2022-08-19T23:39:45.466Z,5.40
2022-08-19T23:42:14.146Z,5.50
2022-08-19T23:44:51.663Z,5.60
2022-08-19T23:47:21.972Z,5.33
2022-08-19T23:49:50.569Z,5.53
2022-08-19T23:52:21.327Z,4.93
2022-08-19T23:54:49.351Z,4.90
2022-08-19T23:57:17.372Z,5.53
2022-08-19T23:59:48.888Z,5.30
